カフルイ空港の過去48時間の天気

カフルイ空港 (Kahului, Kahului Airport)

現在時刻: 5/25 15:56 HST (5/26 01:56 UTC) 以下の時間は現地時間です。

過去48時間のMETAR気象情報
時間 風向 風速(m/s) 視程 気温(℃) 湿度(%) 気圧(hPa) 天気現象
25 14:54 北東 8 10km以上 28.3 48 1015.3
25 13:54 北東 8 10km以上 28.3 49 1015.8
25 12:54 北北東 9 10km以上 27.8 51 1016.4
25 11:54 北北東 10 10km以上 28.9 48 1017.2
25 10:54 北東 8 10km以上 26.7 54 1017.6
25 09:54 北東 7 10km以上 26.1 60 1017.5
25 08:54 北東 4 10km以上 25 64 1017.6
25 07:54 北東 7 10km以上 23.3 74 1017.4
25 06:54 東北東 2 10km以上 22.2 68 1017
25 05:54 2 10km以上 17.2 75 1016.5
25 04:54 静穏 0 10km以上 17.8 70 1016.3
25 03:54 北北東 3 10km以上 19.4 73 1016.1
25 02:54 静穏 0 10km以上 18.3 73 1016
25 01:54 2 10km以上 19.4 71 1016.2
25 00:54 3 10km以上 20 68 1016.7
24 23:54 不定 2 10km以上 19.4 68 1017.4
24 22:54 不定 2 10km以上 22.2 59 1017.8
24 21:54 北東 5 10km以上 23.3 66 1017.6
24 20:54 北東 6 10km以上 22.8 68 1017.5
24 19:54 北東 6 10km以上 23.9 66 1016.3
24 18:54 北北東 8 10km以上 24.4 67 1015.8
24 17:54 北北東 7 10km以上 25.6 60 1015.8
24 16:54 北東 9 10km以上 26.1 60 1016.1
24 15:54 北北東 8 10km以上 26.1 62 1016.3
24 14:54 北北東 9 10km以上 26.7 58 1016.5
24 13:54 北北東 9 10km以上 26.7 62 1017.2
24 12:54 北北東 10 10km以上 28.9 51 1017.8
24 11:54 北東 8 10km以上 29.4 50 1018.2
24 10:54 北東 9 10km以上 28.3 53 1018.8
24 09:54 北東 10 10km以上 28.3 57 1019.1
24 08:54 北東 8 10km以上 27.2 61 1019.1
24 07:54 東北東 6 10km以上 26.1 60 1019.1
24 06:54 北東 5 10km以上 23.9 66 1018.6
24 05:54 東北東 3 10km以上 21.7 68 1018
24 04:54 北東 5 10km以上 22.8 73 1017.7
24 04:18 北北東 4 10km以上 22.8 79 1017
24 04:10 北北東 3 4000m 22.8 76 1017 煙霧
24 03:54 北北東 5 10km以上 22.2 79 1017.5
24 02:54 静穏 0 10km以上 20.6 70 1017.7
24 01:54 静穏 0 10km以上 20.6 73 1018.2
24 00:54 南西 2 10km以上 21.7 68 1018.7
23 23:54 2 10km以上 22.8 66 1019.3
23 22:54 4 10km以上 24.4 62 1019.9
23 21:54 北東 5 10km以上 23.9 69 1019.5
23 20:54 東北東 5 10km以上 24.4 60 1019.4
23 19:54 東北東 3 10km以上 25.6 58 1018.7
23 18:54 東南東 7 10km以上 26.7 54 1017.8
23 17:54 9 10km以上 27.2 51 1017.2
23 16:54 東北東 11 10km以上 27.8 55 1017.1
PHOG 260054Z 04015G22KT 10SM FEW035 SCT050 28/16 A2997 RMK AO2 SLP153 T02830161
PHOG 252354Z 05016KT 10SM FEW035 SCT050 28/17 A2998 RMK AO2 SLP158 T02830167 10294 20233 58018
PHOG 252254Z 03017KT 10SM FEW035 SCT050 28/17 A3000 RMK AO2 SLP164 T02780167
PHOG 252154Z 03019KT 10SM FEW035 SCT055 29/17 A3002 RMK AO2 SLP172 T02890167
PHOG 252054Z 04016KT 10SM FEW030 SCT050 27/17 A3004 RMK AO2 SLP176 T02670167 51002
PHOG 251954Z 05013KT 10SM FEW030 SCT050 26/18 A3003 RMK AO2 SLP175 T02610178
PHOG 251854Z 05007KT 10SM FEW030 SCT045 25/18 A3004 RMK AO2 SLP176 T02500178
PHOG 251754Z 05014KT 10SM FEW025 SCT050 23/18 A3003 RMK AO2 SLP174 T02330183 10244 20161 53011
PHOG 251654Z COR 06004KT 10SM FEW030 SCT050 22/16 A3002 RMK AO2 SLP170 T02220161
PHOG 251554Z 01003KT 10SM FEW040 17/13 A3000 RMK AO2 SLP165 T01720128
PHOG 251454Z AUTO 00000KT 10SM CLR 18/12 A3000 RMK AO2 SLP163 T01780122 53001 TSNO
PHOG 251354Z AUTO 02005KT 10SM CLR 19/14 A2999 RMK AO2 SLP161 T01940144 TSNO
PHOG 251254Z AUTO 00000KT 10SM CLR 18/13 A2999 RMK AO2 SLP160 T01830133 TSNO
PHOG 251154Z AUTO 18003KT 10SM CLR 19/14 A3000 RMK AO2 SLP162 T01940139 10239 20189 58016 TSNO
PHOG 251054Z AUTO 10005KT 10SM CLR 20/14 A3001 RMK AO2 SLP167 T02000139 TSNO
PHOG 250954Z AUTO VRB03KT 10SM CLR 19/13 A3003 RMK AO2 SLP174 T01940133 403000189 TSNO
PHOG 250854Z AUTO VRB03KT 10SM FEW035 22/14 A3004 RMK AO2 SLP178 T02220139 51015 TSNO
PHOG 250754Z 05010KT 10SM FEW035 23/17 A3004 RMK AO2 SLP176 T02330167
PHOG 250654Z 04011KT 10SM FEW035 23/17 A3003 RMK AO2 SLP175 T02280167
PHOG 250554Z 05012KT 10SM FEW035 24/17 A3000 RMK AO2 PK WND 04027/0522 SLP163 T02390172 10283 20239 53002
PHOG 250454Z 03016G21KT 10SM FEW030 SCT045 24/18 A2998 RMK AO2 SLP158 T02440178
PHOG 250354Z 03013KT 10SM FEW030 SCT045 26/17 A2998 RMK AO2 SLP158 T02560172
PHOG 250254Z 04017KT 10SM FEW030 SCT045 26/18 A2999 RMK AO2 SLP161 T02610178 56011
PHOG 250154Z 03016KT 10SM FEW030 SCT045 26/18 A3000 RMK AO2 SLP163 T02610183
PHOG 250054Z 03017KT 10SM FEW033 SCT043 SCT060 27/18 A3000 RMK AO2 SLP165 T02670178
PHOG 242354Z 03018KT 10SM FEW025 SCT033 SCT045 27/19 A3002 RMK AO2 SLP172 T02670189 10300 20261 58017
PHOG 242254Z 03020G25KT 10SM FEW035 SCT055 BKN065 29/18 A3004 RMK AO2 SLP178 T02890178
PHOG 242154Z 05015G24KT 10SM FEW030 SCT050 29/18 A3006 RMK AO2 SLP182 T02940178
PHOG 242054Z 05018G24KT 10SM FEW030 SCT050 28/18 A3007 RMK AO2 SLP188 T02830178 58003
PHOG 241954Z 04020G24KT 10SM FEW030 SCT065 28/19 A3008 RMK AO2 SLP191 T02830189
PHOG 241854Z 04016KT 10SM FEW030 SCT060 27/19 A3008 RMK AO2 SLP191 T02720189
PHOG 241754Z 06012KT 10SM FEW030 26/18 A3008 RMK AO2 SLP191 T02610178 10261 20189 53014
PHOG 241654Z 05009KT 10SM CLR 24/17 A3007 RMK AO2 SLP186 T02390172
PHOG 241554Z 07005KT 10SM CLR 22/16 A3005 RMK AO2 SLP180 T02170156
PHOG 241454Z AUTO 04009KT 10SM CLR 23/18 A3004 RMK AO2 SLP177 T02280178 55005 TSNO
PHOG 241418Z AUTO 02008KT 10SM CLR 23/19 A3004 RMK AO2 T02280189 TSNO
PHOG 241410Z AUTO 02006KT 2 1/2SM HZ CLR 23/18 A3004 RMK AO2 T02280183 TSNO
PHOG 241354Z AUTO 03009KT 10SM CLR 22/18 A3003 RMK AO2 SLP175 T02220183 TSNO
PHOG 241254Z AUTO 00000KT 10SM CLR 21/15 A3004 RMK AO2 SLP177 T02060150 TSNO
PHOG 241154Z AUTO 00000KT 10SM CLR 21/16 A3006 RMK AO2 SLP182 T02060156 10256 20206 56017 TSNO
PHOG 241054Z AUTO 22004KT 10SM CLR 22/16 A3007 RMK AO2 SLP187 T02170156 TSNO
PHOG 240954Z AUTO 09004KT 10SM CLR 23/16 A3009 RMK AO2 SLP193 T02280161 403170194 TSNO
PHOG 240854Z 09008KT 10SM FEW050 24/17 A3011 RMK AO2 SLP199 T02440167 51012
PHOG 240754Z 05009KT 10SM FEW050 24/18 A3009 RMK AO2 SLP195 T02390178
PHOG 240654Z 07009KT 10SM FEW035 SCT055 24/16 A3009 RMK AO2 SLP194 T02440161
PHOG 240554Z 06006KT 10SM SCT050 26/17 A3007 RMK AO2 SLP187 T02560167 10306 20256 53016
PHOG 240454Z 11013G23KT 10SM FEW025 SCT050 27/17 A3004 RMK AO2 PK WND 08026/0359 SLP178 T02670167
PHOG 240354Z 08018G28KT 10SM FEW030 SCT050 SCT075 27/16 A3003 RMK AO2 PK WND 08028/0349 SLP172 T02720161
PHOG 240254Z 07021G28KT 10SM FEW025 SCT050 28/18 A3002 RMK AO2 PK WND 07028/0223 SLP171 T02780178 56012